createdAt,value
2022-09-04T04:13:36.780Z,101238.34
2022-09-04T04:16:24.518Z,101238.53
2022-09-04T04:19:21.871Z,101242.19
2022-09-04T04:22:14.131Z,101246.03
2022-09-04T04:24:51.641Z,101246.03
2022-09-04T04:27:48.837Z,101240.66
2022-09-04T04:30:16.880Z,101246.72
2022-09-04T04:33:08.515Z,101251.25
2022-09-04T04:36:01.273Z,101256.75
2022-09-04T04:38:46.309Z,101258.16
2022-09-04T04:41:30.923Z,101262.38
2022-09-04T04:44:15.848Z,101269.13
2022-09-04T04:47:09.843Z,101266.31
2022-09-04T04:50:06.546Z,101274.22
2022-09-04T04:52:49.280Z,101266.88
2022-09-04T04:55:38.827Z,101260.06
2022-09-04T04:58:21.681Z,101267.66
2022-09-04T05:01:05.304Z,101265.38
2022-09-04T05:03:52.257Z,101267.94
2022-09-04T05:06:40.887Z,101271.00
2022-09-04T05:09:42.063Z,101274.38
2022-09-04T05:12:18.190Z,101293.75
2022-09-04T05:15:22.952Z,101298.00
2022-09-04T05:18:18.231Z,101311.66
2022-09-04T05:20:53.597Z,101302.44
2022-09-04T05:23:38.649Z,101305.53
2022-09-04T05:26:31.087Z,101308.78
2022-09-04T05:29:16.843Z,101316.38
2022-09-04T05:32:12.374Z,101320.16
2022-09-04T05:35:15.990Z,101324.94
2022-09-04T05:38:07.915Z,101333.84
2022-09-04T05:40:58.168Z,101330.41
2022-09-04T05:43:50.057Z,101340.38
2022-09-04T05:46:18.913Z,101344.16
2022-09-04T05:49:32.764Z,101341.72
2022-09-04T05:52:20.869Z,101339.56
2022-09-04T05:54:52.357Z,101352.56
2022-09-04T05:57:34.829Z,101361.00
2022-09-04T06:00:14.850Z,101359.25
2022-09-04T06:03:10.841Z,101364.16
2022-09-04T06:05:45.436Z,101363.53
2022-09-04T06:08:31.609Z,101362.78
2022-09-04T06:11:16.357Z,101366.69
2022-09-04T06:13:54.018Z,101369.78
2022-09-04T06:16:41.362Z,101371.84
2022-09-04T06:19:52.989Z,101376.59
2022-09-04T06:22:40.550Z,101380.53
2022-09-04T06:25:28.676Z,101386.16
2022-09-04T06:28:11.924Z,101381.84
2022-09-04T06:30:48.772Z,101377.34
2022-09-04T06:33:14.990Z,101379.25
2022-09-04T06:36:09.045Z,101375.25
2022-09-04T06:38:48.532Z,101383.53
2022-09-04T06:41:43.523Z,101384.59
2022-09-04T06:44:39.492Z,101390.19
2022-09-04T06:47:20.194Z,101390.91
2022-09-04T06:50:11.712Z,101393.81
2022-09-04T06:52:59.131Z,101393.72
2022-09-04T06:55:53.920Z,101401.47
2022-09-04T06:58:53.200Z,101399.81
2022-09-04T07:01:46.953Z,101409.47
2022-09-04T07:04:28.265Z,101405.47
2022-09-04T07:07:17.897Z,101405.50
2022-09-04T07:09:48.607Z,101406.06
2022-09-04T07:12:50.628Z,101409.50
2022-09-04T07:15:33.886Z,101404.44
2022-09-04T07:18:12.779Z,101404.13
2022-09-04T07:20:49.793Z,101404.97
2022-09-04T07:23:30.960Z,101402.63
2022-09-04T07:26:27.289Z,101404.13
2022-09-04T07:29:26.041Z,101406.88
2022-09-04T07:32:09.461Z,101415.28
2022-09-04T07:34:46.593Z,101419.69
2022-09-04T07:37:25.181Z,101424.59
2022-09-04T07:40:10.100Z,101422.88
2022-09-04T07:43:01.896Z,101419.69
2022-09-04T07:45:38.157Z,101422.22
2022-09-04T07:48:39.450Z,101418.47
2022-09-04T07:51:15.731Z,101424.75
2022-09-04T07:54:22.714Z,101427.78
2022-09-04T07:57:10.866Z,101415.09
2022-09-04T07:59:53.245Z,101427.25
2022-09-04T08:02:37.800Z,101423.50
2022-09-04T08:05:23.262Z,101428.19
2022-09-04T08:08:03.523Z,101432.41
2022-09-04T08:11:06.353Z,101437.59
2022-09-04T08:13:49.266Z,101437.50
2022-09-04T08:16:41.117Z,101436.47
2022-09-04T08:19:15.792Z,101440.97
2022-09-04T08:21:44.657Z,101444.78
2022-09-04T08:24:10.817Z,101434.25
2022-09-04T08:27:09.398Z,101434.13
2022-09-04T08:29:45.599Z,101437.75
2022-09-04T08:32:45.557Z,101441.91
2022-09-04T08:35:27.364Z,101434.84
2022-09-04T08:38:31.784Z,101447.03
2022-09-04T08:41:29.138Z,101442.31
2022-09-04T08:44:01.232Z,101443.06
2022-09-04T08:46:33.234Z,101433.25
2022-09-04T08:49:20.381Z,101437.84
2022-09-04T08:52:08.066Z,101441.00
2022-09-04T08:55:04.565Z,101444.56
2022-09-04T08:57:59.202Z,101452.03
2022-09-04T09:00:49.904Z,101452.38
2022-09-04T09:03:47.239Z,101437.91
2022-09-04T09:06:35.502Z,101439.66
2022-09-04T09:09:23.285Z,101449.03
2022-09-04T09:12:02.587Z,101437.41
2022-09-04T09:14:43.768Z,101445.25
2022-09-04T09:17:34.379Z,101445.03
2022-09-04T09:20:25.960Z,101445.56
2022-09-04T09:23:18.830Z,101436.34
2022-09-04T09:26:36.034Z,101435.06
2022-09-04T09:29:26.240Z,101425.69
2022-09-04T09:32:31.793Z,101427.22
2022-09-04T09:35:31.377Z,101418.59
2022-09-04T09:38:20.073Z,101420.16
2022-09-04T09:41:18.200Z,101430.94
2022-09-04T09:44:15.310Z,101421.19
2022-09-04T09:47:18.987Z,101405.13
2022-09-04T09:50:09.066Z,101414.78
2022-09-04T09:53:11.104Z,101411.03
2022-09-04T09:56:11.193Z,101420.34
2022-09-04T09:59:05.083Z,101409.28
2022-09-04T10:01:44.768Z,101410.44
2022-09-04T10:04:34.199Z,101415.06
2022-09-04T10:07:14.734Z,101412.56
2022-09-04T10:10:02.012Z,101412.38
2022-09-04T10:12:47.327Z,101408.19
2022-09-04T10:15:32.883Z,101405.66
2022-09-04T10:18:17.760Z,101406.97
2022-09-04T10:21:22.771Z,101414.31
2022-09-04T10:24:36.951Z,101421.03
2022-09-04T10:27:09.210Z,101418.31
2022-09-04T10:29:50.645Z,101410.16
2022-09-04T10:32:38.937Z,101420.63
2022-09-04T10:35:21.278Z,101416.84
2022-09-04T10:37:56.745Z,101409.53
2022-09-04T10:40:43.995Z,101404.75
2022-09-04T10:43:35.283Z,101416.50
2022-09-04T10:46:13.909Z,101418.16
2022-09-04T10:49:17.359Z,101415.84
2022-09-04T10:52:05.632Z,101432.00
2022-09-04T10:55:14.954Z,101427.16
2022-09-04T10:58:26.302Z,101419.22
2022-09-04T11:01:17.347Z,101421.53
2022-09-04T11:03:50.548Z,101430.97
2022-09-04T11:06:52.885Z,101425.28
2022-09-04T11:09:46.798Z,101426.09
2022-09-04T11:12:47.169Z,101415.34
2022-09-04T11:15:50.962Z,101416.00
2022-09-04T11:18:35.811Z,101426.06
2022-09-04T11:21:05.936Z,101429.66
2022-09-04T11:24:09.307Z,101428.34
2022-09-04T11:26:55.023Z,101424.56
2022-09-04T11:29:49.292Z,101420.53
2022-09-04T11:32:39.373Z,101416.31
2022-09-04T11:35:41.380Z,101421.34
2022-09-04T11:38:11.427Z,101411.69
2022-09-04T11:41:02.751Z,101415.03
2022-09-04T11:43:46.547Z,101420.84
2022-09-04T11:46:30.260Z,101411.97
2022-09-04T11:49:15.103Z,101405.59
2022-09-04T11:52:04.078Z,101405.72
2022-09-04T11:55:09.814Z,101400.09
2022-09-04T11:58:00.919Z,101404.63
2022-09-04T12:00:37.952Z,101396.72
2022-09-04T12:03:37.832Z,101394.41
2022-09-04T12:06:36.394Z,101393.16
2022-09-04T12:09:32.085Z,101384.72
2022-09-04T12:12:11.467Z,101389.66
2022-09-04T12:15:08.738Z,101387.47
2022-09-04T12:18:21.234Z,101379.00
2022-09-04T12:21:25.531Z,101380.28
2022-09-04T12:24:14.134Z,101375.75
2022-09-04T12:26:59.845Z,101367.50
2022-09-04T12:29:47.544Z,101361.72
2022-09-04T12:32:50.673Z,101361.56
2022-09-04T12:35:51.714Z,101363.81
2022-09-04T12:39:12.980Z,101355.75
2022-09-04T12:42:01.414Z,101363.16
2022-09-04T12:44:48.113Z,101366.31
2022-09-04T12:51:09.663Z,101369.03
2022-09-04T12:57:36.567Z,101362.09
2022-09-04T13:00:40.822Z,101356.03
2022-09-04T13:03:49.821Z,101358.41
2022-09-04T13:06:36.264Z,101371.00
2022-09-04T13:09:32.903Z,101372.66
2022-09-04T13:12:36.871Z,101364.38
2022-09-04T13:15:19.606Z,101370.19
2022-09-04T13:18:01.140Z,101370.31
2022-09-04T13:21:11.662Z,101374.19
2022-09-04T13:24:03.380Z,101383.25
2022-09-04T13:26:42.780Z,101380.31
2022-09-04T13:29:26.405Z,101382.34
2022-09-04T13:32:24.766Z,101388.94
2022-09-04T13:35:17.303Z,101397.94
2022-09-04T13:37:52.060Z,101395.72
2022-09-04T13:40:32.904Z,101394.19
2022-09-04T13:43:24.291Z,101388.53
2022-09-04T13:45:54.772Z,101386.03
2022-09-04T13:48:34.037Z,101388.88
2022-09-04T13:51:33.120Z,101388.88
2022-09-04T13:54:09.995Z,101383.97
2022-09-04T13:56:59.939Z,101380.66
2022-09-04T13:59:26.478Z,101380.31
2022-09-04T14:01:58.594Z,101392.16
2022-09-04T14:04:30.714Z,101398.38
2022-09-04T14:07:02.444Z,101389.16
2022-09-04T14:09:32.111Z,101390.34
2022-09-04T14:12:22.580Z,101393.16
2022-09-04T14:15:05.676Z,101393.28
2022-09-04T14:18:14.025Z,101393.53
2022-09-04T14:24:38.419Z,101393.34
2022-09-04T14:27:21.496Z,101400.50
2022-09-04T14:30:14.769Z,101394.22
2022-09-04T14:32:56.804Z,101396.47
2022-09-04T14:35:50.992Z,101395.84
2022-09-04T14:38:37.864Z,101396.53
2022-09-04T14:41:24.078Z,101395.50
2022-09-04T14:44:22.001Z,101397.16
2022-09-04T14:47:21.083Z,101390.56
2022-09-04T14:49:51.365Z,101396.94
2022-09-04T14:52:22.810Z,101403.75
2022-09-04T14:54:57.848Z,101394.16
2022-09-04T14:57:36.524Z,101401.38
2022-09-04T15:03:41.585Z,101390.19
2022-09-04T15:06:16.451Z,101395.59
2022-09-04T15:09:17.412Z,101393.88
2022-09-04T15:11:44.523Z,101385.28
2022-09-04T15:14:43.400Z,101392.69
2022-09-04T15:17:14.807Z,101398.47
2022-09-04T15:19:47.151Z,101400.78
2022-09-04T15:22:40.534Z,101402.75
2022-09-04T15:25:57.803Z,101392.81
2022-09-04T15:28:52.197Z,101395.34
2022-09-04T15:31:29.348Z,101389.91
2022-09-04T15:34:06.604Z,101390.53
2022-09-04T15:36:33.087Z,101391.66
2022-09-04T15:39:05.597Z,101396.91
2022-09-04T15:41:43.379Z,101402.41
2022-09-04T15:44:19.835Z,101390.91
2022-09-04T15:46:59.057Z,101386.84
2022-09-04T15:49:54.663Z,101389.38
2022-09-04T15:52:37.808Z,101399.75
2022-09-04T15:55:25.844Z,101395.94
2022-09-04T15:58:05.589Z,101404.59
2022-09-04T16:00:37.446Z,101400.59
2022-09-04T16:03:27.641Z,101409.34
2022-09-04T16:05:59.117Z,101404.66
2022-09-04T16:09:03.557Z,101411.09
2022-09-04T16:11:36.402Z,101410.50
2022-09-04T16:14:11.759Z,101399.16
2022-09-04T16:16:53.295Z,101411.53
2022-09-04T16:19:34.966Z,101405.56
2022-09-04T16:22:02.103Z,101410.84
2022-09-04T16:24:40.341Z,101412.41
2022-09-04T16:27:21.363Z,101409.88
2022-09-04T16:30:03.679Z,101422.59
2022-09-04T16:32:36.747Z,101417.34
2022-09-04T16:35:12.827Z,101424.31
2022-09-04T16:38:07.874Z,101431.94
2022-09-04T16:40:46.460Z,101432.47
2022-09-04T16:43:25.668Z,101433.34
2022-09-04T16:46:11.284Z,101439.72
2022-09-04T16:48:44.989Z,101440.53
2022-09-04T16:51:29.234Z,101445.44
2022-09-04T16:54:08.555Z,101435.69
2022-09-04T16:56:40.641Z,101437.69
2022-09-04T16:59:35.804Z,101444.72
2022-09-04T17:02:10.569Z,101441.69
2022-09-04T17:04:40.233Z,101451.00
2022-09-04T17:07:34.724Z,101447.88
2022-09-04T17:10:26.989Z,101449.16
2022-09-04T17:13:12.724Z,101458.00
2022-09-04T17:15:55.389Z,101463.06
2022-09-04T17:18:28.276Z,101465.97
2022-09-04T17:26:19.883Z,101474.97
2022-09-04T17:28:55.989Z,101473.47
2022-09-04T17:29:09.384Z,101472.34
2022-09-04T17:30:31.498Z,101481.50
2022-09-04T17:37:07.887Z,101482.84
2022-09-04T17:40:40.110Z,101491.94
2022-09-04T17:40:54.775Z,101489.66
2022-09-04T17:42:20.036Z,101500.03
2022-09-04T17:45:07.600Z,101491.31
2022-09-04T17:47:45.461Z,101503.28
2022-09-04T17:50:19.270Z,101501.22
2022-09-04T17:53:02.963Z,101503.78
2022-09-04T17:55:39.111Z,101515.56
2022-09-04T17:58:48.098Z,101518.28
2022-09-04T18:01:41.253Z,101520.19
2022-09-04T18:04:25.180Z,101521.28
2022-09-04T18:07:21.833Z,101533.66
2022-09-04T18:10:31.420Z,101530.44
2022-09-04T18:13:08.930Z,101542.63
2022-09-04T18:15:59.532Z,101541.19
2022-09-04T18:18:39.391Z,101548.75
2022-09-04T18:21:14.289Z,101555.47
2022-09-04T18:24:02.111Z,101556.56
2022-09-04T18:26:53.484Z,101554.25
2022-09-04T18:30:53.281Z,101560.22
2022-09-04T18:37:17.611Z,101560.25
2022-09-04T18:37:25.237Z,101564.00
2022-09-04T18:37:59.343Z,101570.44
2022-09-04T18:41:03.959Z,101565.41
2022-09-04T18:50:29.062Z,101575.94
2022-09-04T18:50:33.208Z,101581.91
2022-09-04T18:50:48.101Z,101582.13
2022-09-04T18:52:06.257Z,101583.19
2022-09-04T18:54:41.954Z,101584.91
2022-09-04T18:57:49.259Z,101591.56
2022-09-04T19:01:27.253Z,101594.13
2022-09-04T19:04:19.689Z,101593.34
2022-09-04T19:07:07.347Z,101588.44
2022-09-04T19:10:01.745Z,101594.75
2022-09-04T19:12:47.380Z,101598.13
2022-09-04T19:15:48.887Z,101604.03
2022-09-04T19:18:30.294Z,101602.00
2022-09-04T19:21:09.997Z,101601.84
2022-09-04T19:23:58.887Z,101601.84
2022-09-04T19:26:38.813Z,101599.50
2022-09-04T19:29:13.942Z,101602.53
2022-09-04T19:31:54.575Z,101606.97
2022-09-04T19:34:34.273Z,101604.41
2022-09-04T19:41:32.807Z,101602.41
2022-09-04T19:45:56.370Z,101610.53
2022-09-04T19:46:05.049Z,101613.75
2022-09-04T19:46:35.366Z,101618.16
2022-09-04T19:50:12.976Z,101614.94
2022-09-04T19:53:30.090Z,101619.50
2022-09-04T19:55:24.906Z,101625.75
2022-09-04T19:58:06.339Z,101625.06
2022-09-04T20:00:44.068Z,101618.31
2022-09-04T20:03:29.497Z,101615.78
2022-09-04T20:06:07.717Z,101620.00
2022-09-04T20:09:26.526Z,101613.06
2022-09-04T20:12:01.499Z,101608.84
2022-09-04T20:14:40.010Z,101616.25
2022-09-04T20:17:27.578Z,101608.00
2022-09-04T20:20:01.429Z,101610.81
2022-09-04T20:22:46.346Z,101618.25
2022-09-04T20:25:25.174Z,101615.38
2022-09-04T20:28:00.362Z,101620.56
2022-09-04T20:30:29.943Z,101627.31
2022-09-04T20:33:11.644Z,101620.88
2022-09-04T20:35:45.915Z,101629.63
2022-09-04T20:38:33.143Z,101625.03
2022-09-04T20:41:12.741Z,101626.88
2022-09-04T20:44:04.301Z,101633.25
2022-09-04T20:52:42.500Z,101629.69
2022-09-04T20:52:49.569Z,101636.94
2022-09-04T20:52:53.514Z,101632.34
2022-09-04T20:55:45.397Z,101632.69
2022-09-04T21:01:55.061Z,101634.00
2022-09-04T21:03:10.994Z,101634.81
2022-09-04T21:04:14.415Z,101638.84
2022-09-04T21:07:04.308Z,101637.47
2022-09-04T21:09:54.937Z,101646.69
2022-09-04T21:12:30.481Z,101646.88
2022-09-04T21:15:10.728Z,101656.81
2022-09-04T21:18:03.015Z,101656.44
2022-09-04T21:20:34.797Z,101655.78
2022-09-04T21:23:20.140Z,101658.75
2022-09-04T21:25:58.329Z,101662.44
2022-09-04T21:28:49.970Z,101671.03
2022-09-04T21:31:32.961Z,101672.16
2022-09-04T21:34:43.810Z,101675.84
2022-09-04T21:37:12.767Z,101684.78
2022-09-04T21:40:06.249Z,101682.56
2022-09-04T21:43:13.437Z,101679.31
2022-09-04T21:46:02.751Z,101687.41
2022-09-04T21:48:52.689Z,101690.44
2022-09-04T21:51:49.494Z,101692.59
2022-09-04T21:54:23.293Z,101686.72
2022-09-04T22:02:39.334Z,101696.88
2022-09-04T22:02:45.677Z,101693.34
2022-09-04T22:03:47.607Z,101688.50
2022-09-04T22:06:27.493Z,101686.63
2022-09-04T22:13:26.574Z,101696.69
2022-09-04T22:13:42.732Z,101684.25
2022-09-04T22:15:17.543Z,101691.03
2022-09-04T22:18:10.034Z,101681.94
2022-09-04T22:21:03.919Z,101687.34
2022-09-04T22:23:56.853Z,101690.19
2022-09-04T22:26:56.392Z,101683.25
2022-09-04T22:29:43.153Z,101682.03
2022-09-04T22:32:31.098Z,101680.81
2022-09-04T22:35:36.488Z,101694.31
2022-09-04T22:38:48.771Z,101699.81
2022-09-04T22:41:44.212Z,101693.44
2022-09-04T22:44:44.588Z,101690.91
2022-09-04T22:47:32.887Z,101706.53
2022-09-04T22:50:34.317Z,101711.75
2022-09-04T22:53:19.118Z,101701.97
2022-09-04T22:56:03.869Z,101706.34
2022-09-04T22:59:12.225Z,101709.06
2022-09-04T23:02:47.034Z,101705.50
2022-09-04T23:05:44.592Z,101711.94
2022-09-04T23:13:50.102Z,101711.38
2022-09-04T23:13:58.660Z,101706.28
2022-09-04T23:14:50.781Z,101709.47
2022-09-04T23:17:32.120Z,101710.94
2022-09-04T23:26:37.225Z,101706.53
2022-09-04T23:26:48.449Z,101713.41
2022-09-04T23:27:00.218Z,101716.41
2022-09-04T23:30:04.422Z,101720.09
2022-09-04T23:32:37.905Z,101716.00
2022-09-04T23:35:34.820Z,101722.41
2022-09-04T23:38:24.177Z,101730.50
2022-09-04T23:40:59.482Z,101730.94
2022-09-04T23:43:34.567Z,101731.25
2022-09-04T23:46:18.108Z,101730.56
2022-09-04T23:49:19.580Z,101730.88
2022-09-04T23:51:56.700Z,101734.03
2022-09-04T23:54:51.763Z,101733.47
2022-09-04T23:57:32.066Z,101732.78
